sensor_id;sensor_type;location;lat;lon;timestamp;pressure;altitude;pressure_sealevel;temperature;humidity
22047;BME280;11187;49.412;20.956;2022-11-18T00:01:55;93622.03;;;1.03;100.00
22047;BME280;11187;49.412;20.956;2022-11-18T00:04:42;93610.28;;;1.02;100.00
22047;BME280;11187;49.412;20.956;2022-11-18T00:07:15;93616.97;;;1.05;100.00
22047;BME280;11187;49.412;20.956;2022-11-18T00:10:02;93615.28;;;1.07;100.00
22047;BME280;11187;49.412;20.956;2022-11-18T00:12:35;93611.88;;;1.11;100.00
22047;BME280;11187;49.412;20.956;2022-11-18T00:15:47;93610.22;;;1.09;100.00
22047;BME280;11187;49.412;20.956;2022-11-18T00:18:20;93613.59;;;1.09;100.00
22047;BME280;11187;49.412;20.956;2022-11-18T00:21:14;93606.88;;;1.10;100.00
22047;BME280;11187;49.412;20.956;2022-11-18T00:24:08;93607.69;;;1.09;100.00
22047;BME280;11187;49.412;20.956;2022-11-18T00:26:41;93606.03;;;1.09;100.00
22047;BME280;11187;49.412;20.956;2022-11-18T00:29:28;93607.69;;;1.10;100.00
22047;BME280;11187;49.412;20.956;2022-11-18T00:32:04;93602.66;;;1.12;100.00
22047;BME280;11187;49.412;20.956;2022-11-18T00:34:51;93606.03;;;1.09;100.00
22047;BME280;11187;49.412;20.956;2022-11-18T00:37:24;93599.31;;;1.10;100.00
22047;BME280;11187;49.412;20.956;2022-11-18T00:40:18;93601.78;;;1.11;100.00
22047;BME280;11187;49.412;20.956;2022-11-18T00:43:12;93604.31;;;1.11;100.00
22047;BME280;11187;49.412;20.956;2022-11-18T00:45:45;93594.22;;;1.11;100.00
22047;BME280;11187;49.412;20.956;2022-11-18T00:48:39;93595.94;;;1.11;100.00
22047;BME280;11187;49.412;20.956;2022-11-18T00:51:15;93592.59;;;1.07;100.00
22047;BME280;11187;49.412;20.956;2022-11-18T00:54:09;93590.09;;;1.06;100.00
22047;BME280;11187;49.412;20.956;2022-11-18T00:57:03;93586.69;;;1.07;100.00
22047;BME280;11187;49.412;20.956;2022-11-18T00:59:37;93579.19;;;1.05;100.00
22047;BME280;11187;49.412;20.956;2022-11-18T01:02:24;93583.38;;;1.04;100.00
22047;BME280;11187;49.412;20.956;2022-11-18T01:04:57;93580.03;;;1.02;100.00
22047;BME280;11187;49.412;20.956;2022-11-18T01:07:45;93580.03;;;1.01;100.00
22047;BME280;11187;49.412;20.956;2022-11-18T01:10:18;93574.13;;;1.03;100.00
22047;BME280;11187;49.412;20.956;2022-11-18T01:13:06;93563.22;;;1.04;100.00
22047;BME280;11187;49.412;20.956;2022-11-18T01:15:54;93564.06;;;1.05;100.00
22047;BME280;11187;49.412;20.956;2022-11-18T01:18:42;93559.00;;;1.05;100.00
22047;BME280;11187;49.412;20.956;2022-11-18T01:21:15;93566.56;;;1.05;100.00
22047;BME280;11187;49.412;20.956;2022-11-18T01:24:05;93558.19;;;1.04;100.00
22047;BME280;11187;49.412;20.956;2022-11-18T01:26:38;93558.19;;;1.04;100.00
22047;BME280;11187;49.412;20.956;2022-11-18T01:29:25;93558.19;;;1.04;100.00
22047;BME280;11187;49.412;20.956;2022-11-18T01:31:58;93548.09;;;1.01;100.00
22047;BME280;11187;49.412;20.956;2022-11-18T01:35:08;93557.31;;;1.06;100.00
22047;BME280;11187;49.412;20.956;2022-11-18T01:37:41;93548.88;;;1.11;100.00
22047;BME280;11187;49.412;20.956;2022-11-18T01:40:28;93548.00;;;1.15;100.00
22047;BME280;11187;49.412;20.956;2022-11-18T01:43:02;93548.00;;;1.17;100.00
22047;BME280;11187;49.412;20.956;2022-11-18T01:45:50;93554.69;;;1.18;100.00
22047;BME280;11187;49.412;20.956;2022-11-18T01:48:30;93544.66;;;1.15;100.00
22047;BME280;11187;49.412;20.956;2022-11-18T01:51:36;93544.69;;;1.10;100.00
22047;BME280;11187;49.412;20.956;2022-11-18T01:54:15;93551.38;;;1.13;100.00
22047;BME280;11187;49.412;20.956;2022-11-18T01:57:13;93548.88;;;1.13;100.00
22047;BME280;11187;49.412;20.956;2022-11-18T02:00:10;93547.16;;;1.15;100.00
22047;BME280;11187;49.412;20.956;2022-11-18T02:02:44;93538.75;;;1.17;100.00
22047;BME280;11187;49.412;20.956;2022-11-18T02:05:32;93540.41;;;1.20;100.00
22047;BME280;11187;49.412;20.956;2022-11-18T02:08:06;93537.88;;;1.20;100.00
22047;BME280;11187;49.412;20.956;2022-11-18T02:10:53;93546.31;;;1.20;100.00
22047;BME280;11187;49.412;20.956;2022-11-18T02:13:26;93537.88;;;1.20;100.00
22047;BME280;11187;49.412;20.956;2022-11-18T02:16:19;93536.22;;;1.19;100.00
22047;BME280;11187;49.412;20.956;2022-11-18T02:19:00;93534.56;;;1.15;100.00
22047;BME280;11187;49.412;20.956;2022-11-18T02:30:50;93526.13;;;1.19;100.00
22047;BME280;11187;49.412;20.956;2022-11-18T02:33:56;93526.16;;;1.16;100.00
22047;BME280;11187;49.412;20.956;2022-11-18T02:36:57;93514.41;;;1.15;100.00
22047;BME280;11187;49.412;20.956;2022-11-18T02:39:36;93512.75;;;1.14;100.00
22047;BME280;11187;49.412;20.956;2022-11-18T02:42:34;93504.38;;;1.10;100.00
22047;BME280;11187;49.412;20.956;2022-11-18T02:45:13;93509.41;;;1.12;100.00
22047;BME280;11187;49.412;20.956;2022-11-18T02:48:05;93508.53;;;1.13;100.00
22047;BME280;11187;49.412;20.956;2022-11-18T02:50:41;93500.97;;;1.14;100.00
22047;BME280;11187;49.412;20.956;2022-11-18T02:53:32;93497.63;;;1.14;100.00
22047;BME280;11187;49.412;20.956;2022-11-18T02:56:08;93492.59;;;1.14;100.00
22047;BME280;11187;49.412;20.956;2022-11-18T02:59:03;93483.34;;;1.14;100.00
22047;BME280;11187;49.412;20.956;2022-11-18T03:01:57;93482.50;;;1.14;100.00
22047;BME280;11187;49.412;20.956;2022-11-18T03:04:31;93482.47;;;1.15;100.00
22047;BME280;11187;49.412;20.956;2022-11-18T03:07:22;93479.97;;;1.14;100.00
22047;BME280;11187;49.412;20.956;2022-11-18T03:10:04;93485.03;;;1.11;100.00
22047;BME280;11187;49.412;20.956;2022-11-18T03:12:45;93491.81;;;1.04;100.00
22047;BME280;11187;49.412;20.956;2022-11-18T03:18:37;93499.34;;;1.07;100.00
22047;BME280;11187;49.412;20.956;2022-11-18T03:21:40;93501.84;;;1.09;100.00
22047;BME280;11187;49.412;20.956;2022-11-18T03:24:26;93502.72;;;1.08;100.00
22047;BME280;11187;49.412;20.956;2022-11-18T03:27:30;93509.44;;;1.07;100.00
22047;BME280;11187;49.412;20.956;2022-11-18T03:30:12;93506.06;;;1.07;100.00
22047;BME280;11187;49.412;20.956;2022-11-18T03:33:11;93506.06;;;1.08;100.00
22047;BME280;11187;49.412;20.956;2022-11-18T03:36:08;93506.06;;;1.08;100.00
22047;BME280;11187;49.412;20.956;2022-11-18T03:38:49;93496.81;;;1.10;100.00
22047;BME280;11187;49.412;20.956;2022-11-18T03:41:51;93497.66;;;1.09;100.00
22047;BME280;11187;49.412;20.956;2022-11-18T03:44:51;93493.47;;;1.07;100.00
22047;BME280;11187;49.412;20.956;2022-11-18T03:47:32;93495.16;;;1.06;100.00
22047;BME280;11187;49.412;20.956;2022-11-18T03:50:28;93496.03;;;1.02;100.00
22047;BME280;11187;49.412;20.956;2022-11-18T03:53:04;93494.34;;;1.02;100.00
22047;BME280;11187;49.412;20.956;2022-11-18T03:55:55;93494.34;;;1.01;100.00
22047;BME280;11187;49.412;20.956;2022-11-18T03:58:44;93498.53;;;1.02;100.00
22047;BME280;11187;49.412;20.956;2022-11-18T04:01:55;93489.31;;;1.02;100.00
22047;BME280;11187;49.412;20.956;2022-11-18T04:04:52;93480.06;;;1.01;100.00
22047;BME280;11187;49.412;20.956;2022-11-18T04:11:12;93478.41;;;1.00;100.00
22047;BME280;11187;49.412;20.956;2022-11-18T04:14:08;93476.75;;;0.98;100.00
22047;BME280;11187;49.412;20.956;2022-11-18T04:17:13;93467.50;;;0.97;100.00
22047;BME280;11187;49.412;20.956;2022-11-18T04:20:18;93461.63;;;0.98;100.00
22047;BME280;11187;49.412;20.956;2022-11-18T04:23:13;93467.50;;;0.97;100.00
22047;BME280;11187;49.412;20.956;2022-11-18T04:25:46;93466.72;;;0.93;100.00
22047;BME280;11187;49.412;20.956;2022-11-18T04:28:33;93460.81;;;0.93;100.00
22047;BME280;11187;49.412;20.956;2022-11-18T04:31:06;93455.78;;;0.94;100.00
22047;BME280;11187;49.412;20.956;2022-11-18T04:33:53;93451.59;;;0.93;100.00
22047;BME280;11187;49.412;20.956;2022-11-18T04:36:47;93449.91;;;0.92;100.00
22047;BME280;11187;49.412;20.956;2022-11-18T04:39:41;93447.41;;;0.92;100.00
22047;BME280;11187;49.412;20.956;2022-11-18T04:42:16;93442.31;;;0.95;100.00
22047;BME280;11187;49.412;20.956;2022-11-18T04:45:03;93431.41;;;0.96;100.00
22047;BME280;11187;49.412;20.956;2022-11-18T04:47:37;93435.59;;;0.97;100.00
22047;BME280;11187;49.412;20.956;2022-11-18T04:50:24;93435.59;;;0.97;100.00
22047;BME280;11187;49.412;20.956;2022-11-18T04:52:57;93445.66;;;0.99;100.00
22047;BME280;11187;49.412;20.956;2022-11-18T04:55:44;93435.56;;;0.99;100.00
22047;BME280;11187;49.412;20.956;2022-11-18T04:58:17;93438.94;;;0.99;100.00
22047;BME280;11187;49.412;20.956;2022-11-18T05:01:04;93438.09;;;0.99;100.00
22047;BME280;11187;49.412;20.956;2022-11-18T05:03:37;93446.50;;;0.99;100.00
22047;BME280;11187;49.412;20.956;2022-11-18T05:06:30;93444.84;;;0.98;100.00
22047;BME280;11187;49.412;20.956;2022-11-18T05:09:03;93448.19;;;0.97;100.00
22047;BME280;11187;49.412;20.956;2022-11-18T05:11:50;93453.22;;;0.97;100.00
22047;BME280;11187;49.412;20.956;2022-11-18T05:14:42;93449.88;;;0.97;100.00
22047;BME280;11187;49.412;20.956;2022-11-18T05:17:30;93453.25;;;0.96;100.00
22047;BME280;11187;49.412;20.956;2022-11-18T05:20:03;93461.59;;;0.99;100.00
22047;BME280;11187;49.412;20.956;2022-11-18T05:22:50;93468.31;;;1.02;100.00
22047;BME280;11187;49.412;20.956;2022-11-18T05:25:23;93460.75;;;1.02;100.00
22047;BME280;11187;49.412;20.956;2022-11-18T05:28:10;93463.28;;;1.00;100.00
22047;BME280;11187;49.412;20.956;2022-11-18T05:30:43;93472.50;;;1.01;100.00
22047;BME280;11187;49.412;20.956;2022-11-18T05:33:31;93467.47;;;1.01;100.00
22047;BME280;11187;49.412;20.956;2022-11-18T05:36:25;93471.69;;;1.01;100.00
22047;BME280;11187;49.412;20.956;2022-11-18T05:38:59;93471.72;;;0.98;100.00
22047;BME280;11187;49.412;20.956;2022-11-18T05:41:46;93478.44;;;0.96;100.00
22047;BME280;11187;49.412;20.956;2022-11-18T05:44:37;93475.09;;;0.92;100.00
22047;BME280;11187;49.412;20.956;2022-11-18T05:47:24;93476.78;;;0.92;100.00
22047;BME280;11187;49.412;20.956;2022-11-18T05:49:58;93478.50;;;0.91;100.00
22047;BME280;11187;49.412;20.956;2022-11-18T05:52:45;93485.19;;;0.92;100.00
22047;BME280;11187;49.412;20.956;2022-11-18T05:55:19;93487.72;;;0.91;100.00
22047;BME280;11187;49.412;20.956;2022-11-18T05:58:16;93499.47;;;0.90;100.00
22047;BME280;11187;49.412;20.956;2022-11-18T06:01:11;93492.78;;;0.89;100.00
22047;BME280;11187;49.412;20.956;2022-11-18T06:03:46;93497.00;;;0.89;100.00
22047;BME280;11187;49.412;20.956;2022-11-18T06:06:41;93497.00;;;0.89;100.00
22047;BME280;11187;49.412;20.956;2022-11-18T06:09:37;93497.81;;;0.89;100.00
22047;BME280;11187;49.412;20.956;2022-11-18T06:12:38;93496.13;;;0.90;100.00
22047;BME280;11187;49.412;20.956;2022-11-18T06:15:37;93493.59;;;0.90;100.00
22047;BME280;11187;49.412;20.956;2022-11-18T06:18:32;93502.00;;;0.93;100.00
22047;BME280;11187;49.412;20.956;2022-11-18T06:21:07;93501.97;;;0.96;100.00
22047;BME280;11187;49.412;20.956;2022-11-18T06:23:54;93512.06;;;0.93;100.00
22047;BME280;11187;49.412;20.956;2022-11-18T06:26:27;93511.22;;;0.93;100.00
22047;BME280;11187;49.412;20.956;2022-11-18T06:29:16;93502.78;;;0.95;100.00
22047;BME280;11187;49.412;20.956;2022-11-18T06:31:53;93502.78;;;0.98;100.00
22047;BME280;11187;49.412;20.956;2022-11-18T06:34:40;93486.81;;;0.99;100.00
22047;BME280;11187;49.412;20.956;2022-11-18T06:37:18;93482.59;;;1.00;100.00
22047;BME280;11187;49.412;20.956;2022-11-18T06:40:05;93491.84;;;0.99;100.00
22047;BME280;11187;49.412;20.956;2022-11-18T06:42:39;93494.34;;;1.01;100.00
22047;BME280;11187;49.412;20.956;2022-11-18T06:45:44;93501.06;;;1.05;100.00
22047;BME280;11187;49.412;20.956;2022-11-18T06:48:37;93514.47;;;1.06;100.00
22047;BME280;11187;49.412;20.956;2022-11-18T06:51:24;93511.97;;;1.06;100.00
22047;BME280;11187;49.412;20.956;2022-11-18T06:53:57;93508.63;;;1.05;100.00
22047;BME280;11187;49.412;20.956;2022-11-18T06:56:49;93505.22;;;1.06;100.00
22047;BME280;11187;49.412;20.956;2022-11-18T06:59:22;93496.84;;;1.06;100.00
22047;BME280;11187;49.412;20.956;2022-11-18T07:02:09;93496.00;;;1.03;100.00
22047;BME280;11187;49.412;20.956;2022-11-18T07:04:42;93500.22;;;1.00;100.00
22047;BME280;11187;49.412;20.956;2022-11-18T07:07:29;93507.00;;;0.98;100.00
22047;BME280;11187;49.412;20.956;2022-11-18T07:10:07;93500.31;;;0.92;100.00
22047;BME280;11187;49.412;20.956;2022-11-18T07:12:55;93492.78;;;0.88;100.00
22047;BME280;11187;49.412;20.956;2022-11-18T07:15:28;93491.13;;;0.83;100.00
22047;BME280;11187;49.412;20.956;2022-11-18T07:18:15;93488.63;;;0.82;100.00
22047;BME280;11187;49.412;20.956;2022-11-18T07:20:48;93487.81;;;0.78;100.00
22047;BME280;11187;49.412;20.956;2022-11-18T07:23:35;93487.81;;;0.80;100.00
22047;BME280;11187;49.412;20.956;2022-11-18T07:26:09;93490.28;;;0.83;100.00
22047;BME280;11187;49.412;20.956;2022-11-18T07:28:56;93488.59;;;0.83;100.00
22047;BME280;11187;49.412;20.956;2022-11-18T07:31:29;93488.59;;;0.83;100.00
22047;BME280;11187;49.412;20.956;2022-11-18T07:34:24;93487.75;;;0.86;100.00
22047;BME280;11187;49.412;20.956;2022-11-18T07:37:18;93493.59;;;0.88;100.00
22047;BME280;11187;49.412;20.956;2022-11-18T07:39:51;93491.09;;;0.88;100.00
22047;BME280;11187;49.412;20.956;2022-11-18T07:42:45;93496.16;;;0.87;100.00
22047;BME280;11187;49.412;20.956;2022-11-18T07:45:18;93492.78;;;0.86;100.00
22047;BME280;11187;49.412;20.956;2022-11-18T07:48:05;93489.44;;;0.84;100.00
22047;BME280;11187;49.412;20.956;2022-11-18T07:50:38;93489.44;;;0.86;100.00
22047;BME280;11187;49.412;20.956;2022-11-18T07:53:29;93491.94;;;0.87;100.00
22047;BME280;11187;49.412;20.956;2022-11-18T07:56:06;93488.56;;;0.88;100.00
22047;BME280;11187;49.412;20.956;2022-11-18T07:59:00;93492.78;;;0.89;100.00
22047;BME280;11187;49.412;20.956;2022-11-18T08:01:34;93484.41;;;0.87;100.00
22047;BME280;11187;49.412;20.956;2022-11-18T08:04:28;93488.59;;;0.87;100.00
22047;BME280;11187;49.412;20.956;2022-11-18T08:07:01;93493.59;;;0.88;100.00
22047;BME280;11187;49.412;20.956;2022-11-18T08:09:55;93491.13;;;0.85;100.00
22047;BME280;11187;49.412;20.956;2022-11-18T08:12:28;93483.59;;;0.82;100.00
22047;BME280;11187;49.412;20.956;2022-11-18T08:15:23;93484.41;;;0.84;100.00
22047;BME280;11187;49.412;20.956;2022-11-18T08:18:17;93476.88;;;0.82;100.00
22047;BME280;11187;49.412;20.956;2022-11-18T08:21:12;93474.34;;;0.82;100.00
22047;BME280;11187;49.412;20.956;2022-11-18T08:23:53;93470.19;;;0.78;100.00
22047;BME280;11187;49.412;20.956;2022-11-18T08:26:47;93471.00;;;0.79;100.00
22047;BME280;11187;49.412;20.956;2022-11-18T08:29:41;93462.63;;;0.78;100.00
22047;BME280;11187;49.412;20.956;2022-11-18T08:32:35;93481.91;;;0.81;100.00
22047;BME280;11187;49.412;20.956;2022-11-18T08:35:08;93481.91;;;0.79;100.00
22047;BME280;11187;49.412;20.956;2022-11-18T08:37:55;93492.03;;;0.76;100.00
22047;BME280;11187;49.412;20.956;2022-11-18T08:40:28;93498.75;;;0.74;100.00
22047;BME280;11187;49.412;20.956;2022-11-18T08:43:15;93500.47;;;0.68;100.00
22047;BME280;11187;49.412;20.956;2022-11-18T08:45:48;93503.84;;;0.65;100.00
22047;BME280;11187;49.412;20.956;2022-11-18T08:48:43;93513.13;;;0.61;100.00
22047;BME280;11187;49.412;20.956;2022-11-18T08:51:37;93519.00;;;0.59;100.00
22047;BME280;11187;49.412;20.956;2022-11-18T08:54:10;93520.69;;;0.60;100.00
22047;BME280;11187;49.412;20.956;2022-11-18T08:56:57;93510.59;;;0.63;100.00
22047;BME280;11187;49.412;20.956;2022-11-18T08:59:30;93513.09;;;0.63;100.00
22047;BME280;11187;49.412;20.956;2022-11-18T09:02:19;93513.94;;;0.63;100.00
22047;BME280;11187;49.412;20.956;2022-11-18T09:04:52;93509.72;;;0.66;100.00
22047;BME280;11187;49.412;20.956;2022-11-18T09:07:39;93518.13;;;0.65;100.00
22047;BME280;11187;49.412;20.956;2022-11-18T09:10:12;93514.78;;;0.62;100.00
22047;BME280;11187;49.412;20.956;2022-11-18T09:13:06;93511.41;;;0.63;100.00
22047;BME280;11187;49.412;20.956;2022-11-18T09:16:21;93507.22;;;0.62;100.00
22047;BME280;11187;49.412;20.956;2022-11-18T09:18:55;93506.41;;;0.60;100.00
22047;BME280;11187;49.412;20.956;2022-11-18T09:22:04;93515.69;;;0.57;100.00
22047;BME280;11187;49.412;20.956;2022-11-18T09:24:37;93522.38;;;0.59;100.00
22047;BME280;11187;49.412;20.956;2022-11-18T09:27:24;93527.41;;;0.59;100.00
22047;BME280;11187;49.412;20.956;2022-11-18T09:29:57;93528.28;;;0.55;100.00
22047;BME280;11187;49.412;20.956;2022-11-18T09:32:51;93524.06;;;0.56;100.00
22047;BME280;11187;49.412;20.956;2022-11-18T09:35:42;93501.41;;;0.56;100.00
22047;BME280;11187;49.412;20.956;2022-11-18T09:38:36;93502.22;;;0.56;100.00
22047;BME280;11187;49.412;20.956;2022-11-18T09:47:29;93512.28;;;0.64;100.00
22047;BME280;11187;49.412;20.956;2022-11-18T09:50:09;93505.53;;;0.65;100.00
22047;BME280;11187;49.412;20.956;2022-11-18T09:53:24;93498.00;;;0.66;100.00
22047;BME280;11187;49.412;20.956;2022-11-18T09:56:19;93491.25;;;0.65;100.00
22047;BME280;11187;49.412;20.956;2022-11-18T09:58:53;93491.25;;;0.67;100.00
22047;BME280;11187;49.412;20.956;2022-11-18T10:01:44;93481.19;;;0.63;100.00
22047;BME280;11187;49.412;20.956;2022-11-18T10:04:19;93484.56;;;0.61;100.00
22047;BME280;11187;49.412;20.956;2022-11-18T10:07:15;93487.13;;;0.59;100.00
22047;BME280;11187;49.412;20.956;2022-11-18T10:09:53;93493.00;;;0.57;100.00
22047;BME280;11187;49.412;20.956;2022-11-18T10:12:56;93498.88;;;0.54;100.00
22047;BME280;11187;49.412;20.956;2022-11-18T10:19:09;93493.84;;;0.54;100.00
22047;BME280;11187;49.412;20.956;2022-11-18T10:22:15;93488.81;;;0.54;100.00
22047;BME280;11187;49.412;20.956;2022-11-18T10:24:52;93493.84;;;0.56;100.00
22047;BME280;11187;49.412;20.956;2022-11-18T10:27:42;93499.72;;;0.56;100.00
22047;BME280;11187;49.412;20.956;2022-11-18T10:30:23;93502.25;;;0.55;100.00
22047;BME280;11187;49.412;20.956;2022-11-18T10:39:04;93501.44;;;0.45;100.00
22047;BME280;11187;49.412;20.956;2022-11-18T10:41:52;93500.63;;;0.45;100.00
22047;BME280;11187;49.412;20.956;2022-11-18T10:44:37;93500.66;;;0.41;100.00
22047;BME280;11187;49.412;20.956;2022-11-18T10:47:30;93500.63;;;0.43;100.00
22047;BME280;11187;49.412;20.956;2022-11-18T10:50:34;93502.31;;;0.43;100.00
22047;BME280;11187;49.412;20.956;2022-11-18T10:53:33;93497.28;;;0.43;100.00
22047;BME280;11187;49.412;20.956;2022-11-18T10:56:08;93491.44;;;0.39;100.00
22047;BME280;11187;49.412;20.956;2022-11-18T10:58:56;93488.06;;;0.40;100.00
22047;BME280;11187;49.412;20.956;2022-11-18T11:01:29;93488.06;;;0.38;100.00
22047;BME280;11187;49.412;20.956;2022-11-18T11:04:24;93490.59;;;0.38;100.00
22047;BME280;11187;49.412;20.956;2022-11-18T11:07:30;93497.31;;;0.41;100.00
22047;BME280;11187;49.412;20.956;2022-11-18T11:12:58;93501.47;;;0.44;100.00
22047;BME280;11187;49.412;20.956;2022-11-18T11:15:40;93492.25;;;0.43;100.00
22047;BME280;11187;49.412;20.956;2022-11-18T11:18:29;93506.50;;;0.45;100.00
22047;BME280;11187;49.412;20.956;2022-11-18T11:21:15;93511.53;;;0.45;100.00
22047;BME280;11187;49.412;20.956;2022-11-18T11:24:11;93507.31;;;0.47;100.00
22047;BME280;11187;49.412;20.956;2022-11-18T11:26:51;93510.66;;;0.48;100.00
22047;BME280;11187;49.412;20.956;2022-11-18T11:30:04;93513.22;;;0.46;100.00
22047;BME280;11187;49.412;20.956;2022-11-18T11:36:07;93510.69;;;0.43;100.00
22047;BME280;11187;49.412;20.956;2022-11-18T11:51:52;93520.81;;;0.34;100.00
22047;BME280;11187;49.412;20.956;2022-11-18T12:00:23;93517.53;;;0.21;100.00
22047;BME280;11187;49.412;20.956;2022-11-18T12:06:17;93523.44;;;0.11;100.00
22047;BME280;11187;49.412;20.956;2022-11-18T12:09:20;93515.06;;;0.10;100.00
22047;BME280;11187;49.412;20.956;2022-11-18T12:12:27;93516.72;;;0.11;100.00
22047;BME280;11187;49.412;20.956;2022-11-18T12:24:31;93515.09;;;0.07;100.00
22047;BME280;11187;49.412;20.956;2022-11-18T12:30:00;93535.19;;;0.09;100.00
22047;BME280;11187;49.412;20.956;2022-11-18T12:32:54;93535.19;;;0.09;100.00
22047;BME280;11187;49.412;20.956;2022-11-18T12:35:34;93534.38;;;0.08;100.00
22047;BME280;11187;49.412;20.956;2022-11-18T12:38:31;93536.03;;;0.06;100.00
22047;BME280;11187;49.412;20.956;2022-11-18T12:44:51;93542.78;;;-0.01;100.00
22047;BME280;11187;49.412;20.956;2022-11-18T12:54:14;93527.72;;;-0.07;100.00
22047;BME280;11187;49.412;20.956;2022-11-18T12:56:52;93526.88;;;-0.07;100.00
22047;BME280;11187;49.412;20.956;2022-11-18T12:59:40;93543.63;;;-0.05;100.00
22047;BME280;11187;49.412;20.956;2022-11-18T13:05:15;93544.47;;;-0.06;100.00
22047;BME280;11187;49.412;20.956;2022-11-18T13:08:17;93545.34;;;-0.07;100.00
22047;BME280;11187;49.412;20.956;2022-11-18T13:11:16;93547.00;;;-0.07;100.00
22047;BME280;11187;49.412;20.956;2022-11-18T13:14:31;93542.81;;;-0.07;100.00
22047;BME280;11187;49.412;20.956;2022-11-18T13:17:37;93552.03;;;-0.06;100.00
22047;BME280;11187;49.412;20.956;2022-11-18T13:20:33;93549.53;;;-0.10;100.00
22047;BME280;11187;49.412;20.956;2022-11-18T13:26:30;93558.75;;;-0.12;100.00
22047;BME280;11187;49.412;20.956;2022-11-18T13:29:18;93556.22;;;-0.12;100.00
22047;BME280;11187;49.412;20.956;2022-11-18T13:32:21;93550.38;;;-0.11;100.00
22047;BME280;11187;49.412;20.956;2022-11-18T13:35:20;93552.06;;;-0.13;100.00
22047;BME280;11187;49.412;20.956;2022-11-18T13:37:58;93557.09;;;-0.15;100.00
22047;BME280;11187;49.412;20.956;2022-11-18T13:40:49;93561.28;;;-0.17;100.00
22047;BME280;11187;49.412;20.956;2022-11-18T13:43:43;93547.88;;;-0.24;100.00
22047;BME280;11187;49.412;20.956;2022-11-18T13:46:39;93553.75;;;-0.26;100.00
22047;BME280;11187;49.412;20.956;2022-11-18T13:49:15;93552.09;;;-0.30;100.00
22047;BME280;11187;49.412;20.956;2022-11-18T13:52:17;93547.09;;;-0.39;100.00
22047;BME280;11187;49.412;20.956;2022-11-18T13:55:22;93558.00;;;-0.45;100.00
22047;BME280;11187;49.412;20.956;2022-11-18T14:00:57;93572.25;;;-0.58;100.00
22047;BME280;11187;49.412;20.956;2022-11-18T14:03:56;93574.78;;;-0.61;100.00
22047;BME280;11187;49.412;20.956;2022-11-18T14:06:38;93581.47;;;-0.58;100.00
22047;BME280;11187;49.412;20.956;2022-11-18T14:09:33;93580.63;;;-0.60;100.00
22047;BME280;11187;49.412;20.956;2022-11-18T14:15:21;93577.28;;;-0.69;100.00
22047;BME280;11187;49.412;20.956;2022-11-18T14:17:56;93585.66;;;-0.71;100.00
22047;BME280;11187;49.412;20.956;2022-11-18T14:20:52;93589.00;;;-0.78;100.00
22047;BME280;11187;49.412;20.956;2022-11-18T14:23:46;93589.00;;;-0.85;100.00
22047;BME280;11187;49.412;20.956;2022-11-18T14:26:40;93588.16;;;-0.87;100.00
22047;BME280;11187;49.412;20.956;2022-11-18T14:29:34;93594.88;;;-0.96;100.00
22047;BME280;11187;49.412;20.956;2022-11-18T14:32:28;93589.00;;;-1.03;100.00
22047;BME280;11187;49.412;20.956;2022-11-18T14:35:22;93586.50;;;-1.06;100.00
22047;BME280;11187;49.412;20.956;2022-11-18T14:41:25;93591.50;;;-1.09;100.00
22047;BME280;11187;49.412;20.956;2022-11-18T14:44:34;93599.03;;;-1.08;100.00
22047;BME280;11187;49.412;20.956;2022-11-18T14:47:28;93605.75;;;-1.11;100.00
22047;BME280;11187;49.412;20.956;2022-11-18T14:50:02;93605.75;;;-1.11;100.00
22047;BME280;11187;49.412;20.956;2022-11-18T14:52:48;93609.91;;;-1.16;100.00
22047;BME280;11187;49.412;20.956;2022-11-18T14:55:21;93608.25;;;-1.17;100.00
22047;BME280;11187;49.412;20.956;2022-11-18T14:58:12;93611.56;;;-1.23;100.00
22047;BME280;11187;49.412;20.956;2022-11-18T15:00:47;93614.06;;;-1.28;100.00
22047;BME280;11187;49.412;20.956;2022-11-18T15:03:34;93614.91;;;-1.32;100.00
22047;BME280;11187;49.412;20.956;2022-11-18T15:06:13;93606.53;;;-1.34;100.00
22047;BME280;11187;49.412;20.956;2022-11-18T15:09:07;93619.06;;;-1.35;100.00
22047;BME280;11187;49.412;20.956;2022-11-18T15:12:01;93628.25;;;-1.39;100.00
22047;BME280;11187;49.412;20.956;2022-11-18T15:14:55;93633.28;;;-1.45;100.00
22047;BME280;11187;49.412;20.956;2022-11-18T15:17:29;93636.59;;;-1.46;100.00
22047;BME280;11187;49.412;20.956;2022-11-18T15:20:17;93634.94;;;-1.47;100.00
22047;BME280;11187;49.412;20.956;2022-11-18T15:22:50;93637.44;;;-1.47;100.00
22047;BME280;11187;49.412;20.956;2022-11-18T15:25:37;93630.75;;;-1.45;100.00
22047;BME280;11187;49.412;20.956;2022-11-18T15:28:10;93627.41;;;-1.47;100.00
22047;BME280;11187;49.412;20.956;2022-11-18T15:30:57;93637.44;;;-1.47;100.00
22047;BME280;11187;49.412;20.956;2022-11-18T15:33:31;93637.41;;;-1.53;100.00
22047;BME280;11187;49.412;20.956;2022-11-18T15:36:20;93644.94;;;-1.55;100.00
22047;BME280;11187;49.412;20.956;2022-11-18T15:38:54;93648.31;;;-1.54;100.00
22047;BME280;11187;49.412;20.956;2022-11-18T15:41:41;93634.06;;;-1.54;100.00
22047;BME280;11187;49.412;20.956;2022-11-18T15:44:14;93640.75;;;-1.56;100.00
22047;BME280;11187;49.412;20.956;2022-11-18T15:47:08;93643.25;;;-1.57;100.00
22047;BME280;11187;49.412;20.956;2022-11-18T15:49:41;93654.97;;;-1.58;100.00
22047;BME280;11187;49.412;20.956;2022-11-18T15:52:28;93655.78;;;-1.63;100.00
22047;BME280;11187;49.412;20.956;2022-11-18T15:55:02;93653.28;;;-1.63;100.00
22047;BME280;11187;49.412;20.956;2022-11-18T15:57:48;93661.63;;;-1.64;100.00
22047;BME280;11187;49.412;20.956;2022-11-18T16:00:21;93664.97;;;-1.64;100.00
22047;BME280;11187;49.412;20.956;2022-11-18T16:03:01;93670.84;;;-1.63;100.00
22047;BME280;11187;49.412;20.956;2022-11-18T16:05:41;93674.16;;;-1.66;100.00